DLH3RL EDDM-EDDL
Flight info
| Callsign | DLH3RL |
|---|---|
| Flight time | 0h 51m |
| Altitude | 32000 |
| Route | GIVMI1N/26R GIVMI Y101 INBED DCT REKDI DCT LOHRE Z850 ARPEG/N0405F240 Z850 ADEMI T854 DOMUX DOMUX1A |
| Aircraft | A320/M-SDE3FGHIRWY/LB1 |
Departure
| Time | 2026-05-07 20:23 |
|---|---|
| Airport | Munich Airport (EDDM) |
Arrival
| Time | 2026-05-07 21:14 |
|---|---|
| Airport | Düsseldorf Airport (EDDL) |
| Time | Latitude | Longitude | Altitude | Speed | Heading |
|---|---|---|---|---|---|
| 2026-05-07 19:53 | 48.35643 | 11.79274 | 1486 ft | 0 kts | 263° |
| 2026-05-07 20:11 | 48.35644 | 11.79287 | 1471 ft | 3 kts | 263° |
| 2026-05-07 20:11 | 48.35647 | 11.79317 | 1473 ft | 3 kts | 263° |
| 2026-05-07 20:12 | 48.35649 | 11.79348 | 1476 ft | 3 kts | 263° |
| 2026-05-07 20:12 | 48.35651 | 11.79377 | 1477 ft | 3 kts | 278° |
| 2026-05-07 20:12 | 48.35645 | 11.79404 | 1471 ft | 3 kts | 308° |
| 2026-05-07 20:12 | 48.35631 | 11.79422 | 1473 ft | 3 kts | 344° |
| 2026-05-07 20:13 | 48.35620 | 11.79425 | 1480 ft | 2 kts | 353° |
| 2026-05-07 20:13 | 48.35607 | 11.79428 | 1474 ft | 1 kts | 353° |
| 2026-05-07 20:13 | 48.35606 | 11.79428 | 1474 ft | 0 kts | 353° |
| 2026-05-07 20:16 | 48.35622 | 11.79425 | 1479 ft | 8 kts | 353° |
| 2026-05-07 20:16 | 48.35679 | 11.79417 | 1485 ft | 8 kts | 355° |
| 2026-05-07 20:16 | 48.35756 | 11.79443 | 1479 ft | 14 kts | 26° |
| 2026-05-07 20:16 | 48.35851 | 11.79512 | 1485 ft | 16 kts | 13° |
| 2026-05-07 20:17 | 48.35971 | 11.79501 | 1479 ft | 18 kts | 355° |
| 2026-05-07 20:17 | 48.36094 | 11.79480 | 1485 ft | 14 kts | 354° |
| 2026-05-07 20:17 | 48.36194 | 11.79475 | 1478 ft | 14 kts | 20° |
| 2026-05-07 20:17 | 48.36225 | 11.79619 | 1480 ft | 16 kts | 84° |
| 2026-05-07 20:18 | 48.36239 | 11.79798 | 1474 ft | 19 kts | 83° |
| 2026-05-07 20:18 | 48.36257 | 11.80038 | 1485 ft | 25 kts | 83° |
| 2026-05-07 20:18 | 48.36278 | 11.80305 | 1475 ft | 27 kts | 83° |
| 2026-05-07 20:18 | 48.36300 | 11.80588 | 1485 ft | 28 kts | 84° |
| 2026-05-07 20:19 | 48.36322 | 11.80882 | 1485 ft | 26 kts | 84° |
| 2026-05-07 20:19 | 48.36339 | 11.81150 | 1481 ft | 26 kts | 83° |
| 2026-05-07 20:19 | 48.36364 | 11.81435 | 1485 ft | 28 kts | 82° |
| 2026-05-07 20:19 | 48.36387 | 11.81732 | 1485 ft | 29 kts | 83° |
| 2026-05-07 20:20 | 48.36397 | 11.81956 | 1485 ft | 17 kts | 78° |
| 2026-05-07 20:20 | 48.36475 | 11.82001 | 1479 ft | 13 kts | 355° |
| 2026-05-07 20:20 | 48.36573 | 11.81983 | 1475 ft | 15 kts | 353° |
| 2026-05-07 20:20 | 48.36667 | 11.81956 | 1475 ft | 10 kts | 340° |
| 2026-05-07 20:21 | 48.36674 | 11.81926 | 1478 ft | 1 kts | 260° |
| 2026-05-07 20:21 | 48.36674 | 11.81923 | 1478 ft | 0 kts | 263° |
| 2026-05-07 20:22 | 48.36651 | 11.81624 | 1478 ft | 70 kts | 263° |
| 2026-05-07 20:22 | 48.36567 | 11.80521 | 1473 ft | 136 kts | 263° |
| 2026-05-07 20:22 | 48.36452 | 11.78907 | 1839 ft | 159 kts | 265° |
| 2026-05-07 20:23 | 48.36340 | 11.77256 | 2644 ft | 159 kts | 265° |
| 2026-05-07 20:23 | 48.36211 | 11.75517 | 3145 ft | 178 kts | 264° |
| 2026-05-07 20:23 | 48.36060 | 11.73584 | 3635 ft | 193 kts | 263° |
| 2026-05-07 20:23 | 48.35891 | 11.71456 | 4089 ft | 217 kts | 263° |
| 2026-05-07 20:24 | 48.35740 | 11.69129 | 4801 ft | 228 kts | 271° |
| 2026-05-07 20:24 | 48.36148 | 11.66786 | 5513 ft | 244 kts | 297° |
| 2026-05-07 20:24 | 48.37065 | 11.64501 | 6154 ft | 262 kts | 301° |
| 2026-05-07 20:24 | 48.38038 | 11.62156 | 7091 ft | 266 kts | 301° |
| 2026-05-07 20:25 | 48.39023 | 11.59781 | 8101 ft | 269 kts | 300° |
| 2026-05-07 20:25 | 48.40013 | 11.57385 | 9118 ft | 271 kts | 300° |
| 2026-05-07 20:25 | 48.41006 | 11.54963 | 10106 ft | 273 kts | 299° |
| 2026-05-07 20:25 | 48.42003 | 11.52513 | 10994 ft | 276 kts | 299° |
| 2026-05-07 20:26 | 48.43011 | 11.50026 | 11866 ft | 280 kts | 299° |
| 2026-05-07 20:26 | 48.44033 | 11.47507 | 12751 ft | 284 kts | 299° |
| 2026-05-07 20:26 | 48.45279 | 11.45136 | 13349 ft | 302 kts | 316° |
| 2026-05-07 20:26 | 48.47184 | 11.43486 | 13607 ft | 332 kts | 336° |
| 2026-05-07 20:27 | 48.49425 | 11.42284 | 13970 ft | 349 kts | 338° |
| 2026-05-07 20:27 | 48.51751 | 11.41094 | 14616 ft | 355 kts | 339° |
| 2026-05-07 20:27 | 48.54110 | 11.39909 | 15344 ft | 359 kts | 339° |
| 2026-05-07 20:27 | 48.56488 | 11.38714 | 16078 ft | 362 kts | 338° |
| 2026-05-07 20:28 | 48.58887 | 11.37495 | 16800 ft | 365 kts | 338° |
| 2026-05-07 20:28 | 48.61304 | 11.36251 | 17509 ft | 368 kts | 338° |
| 2026-05-07 20:28 | 48.63738 | 11.34983 | 18214 ft | 372 kts | 338° |
| 2026-05-07 20:28 | 48.66196 | 11.33694 | 18791 ft | 376 kts | 338° |
| 2026-05-07 20:29 | 48.68681 | 11.32392 | 19367 ft | 380 kts | 338° |
| 2026-05-07 20:29 | 48.71190 | 11.31073 | 19972 ft | 383 kts | 338° |
| 2026-05-07 20:29 | 48.73706 | 11.29730 | 20564 ft | 385 kts | 337° |
| 2026-05-07 20:29 | 48.76241 | 11.28364 | 21176 ft | 387 kts | 337° |
| 2026-05-07 20:30 | 48.78786 | 11.26987 | 21767 ft | 390 kts | 337° |
| 2026-05-07 20:30 | 48.81351 | 11.25600 | 22338 ft | 393 kts | 337° |
| 2026-05-07 20:30 | 48.83932 | 11.24204 | 22893 ft | 396 kts | 337° |
| 2026-05-07 20:30 | 48.86538 | 11.22799 | 23443 ft | 399 kts | 337° |
| 2026-05-07 20:31 | 48.89164 | 11.21387 | 23926 ft | 401 kts | 337° |
| 2026-05-07 20:31 | 48.91803 | 11.19968 | 24370 ft | 404 kts | 337° |
| 2026-05-07 20:31 | 48.94468 | 11.18529 | 24815 ft | 407 kts | 337° |
| 2026-05-07 20:31 | 48.97144 | 11.17078 | 25249 ft | 409 kts | 337° |
| 2026-05-07 20:32 | 48.99839 | 11.15614 | 25676 ft | 412 kts | 338° |
| 2026-05-07 20:32 | 49.02547 | 11.14142 | 26083 ft | 415 kts | 338° |
| 2026-05-07 20:32 | 49.04354 | 11.13161 | 26356 ft | 417 kts | 338° |
| 2026-05-07 20:32 | 49.07097 | 11.11667 | 26771 ft | 420 kts | 338° |
| 2026-05-07 20:33 | 49.09853 | 11.10163 | 27170 ft | 422 kts | 338° |
| 2026-05-07 20:33 | 49.12634 | 11.08647 | 27588 ft | 425 kts | 338° |
| 2026-05-07 20:33 | 49.15420 | 11.07127 | 27996 ft | 427 kts | 338° |
| 2026-05-07 20:33 | 49.18226 | 11.05594 | 28394 ft | 429 kts | 338° |
| 2026-05-07 20:34 | 49.21050 | 11.04045 | 28787 ft | 432 kts | 338° |
| 2026-05-07 20:34 | 49.23880 | 11.02477 | 29164 ft | 434 kts | 338° |
| 2026-05-07 20:34 | 49.26730 | 11.00890 | 29492 ft | 437 kts | 338° |
| 2026-05-07 20:34 | 49.29594 | 10.99291 | 29851 ft | 439 kts | 338° |
| 2026-05-07 20:35 | 49.32469 | 10.97682 | 30188 ft | 441 kts | 338° |
| 2026-05-07 20:35 | 49.35368 | 10.95918 | 30474 ft | 442 kts | 332° |
| 2026-05-07 20:35 | 49.38032 | 10.93566 | 30747 ft | 442 kts | 323° |
| 2026-05-07 20:35 | 49.40422 | 10.90605 | 31075 ft | 441 kts | 315° |
| 2026-05-07 20:36 | 49.42478 | 10.87148 | 31466 ft | 438 kts | 308° |
| 2026-05-07 20:36 | 49.44398 | 10.83505 | 31747 ft | 438 kts | 308° |
| 2026-05-07 20:36 | 49.46312 | 10.79872 | 32008 ft | 438 kts | 307° |
| 2026-05-07 20:37 | 49.50107 | 10.72676 | 32096 ft | 429 kts | 308° |
| 2026-05-07 20:37 | 49.53842 | 10.65563 | 32089 ft | 427 kts | 308° |
| 2026-05-07 20:38 | 49.57569 | 10.58444 | 32092 ft | 426 kts | 308° |
| 2026-05-07 20:38 | 49.61293 | 10.51315 | 32092 ft | 426 kts | 308° |
| 2026-05-07 20:39 | 49.65190 | 10.44416 | 32092 ft | 427 kts | 311° |
| 2026-05-07 20:39 | 49.69245 | 10.37710 | 32086 ft | 426 kts | 312° |
| 2026-05-07 20:40 | 49.73248 | 10.30955 | 32085 ft | 426 kts | 311° |
| 2026-05-07 20:40 | 49.77198 | 10.24121 | 32083 ft | 426 kts | 310° |
| 2026-05-07 20:41 | 49.81110 | 10.17299 | 32074 ft | 426 kts | 310° |
| 2026-05-07 20:41 | 49.85057 | 10.10430 | 32075 ft | 427 kts | 311° |
| 2026-05-07 20:42 | 49.89007 | 10.03555 | 32075 ft | 427 kts | 310° |
| 2026-05-07 20:42 | 49.92948 | 9.96666 | 32076 ft | 426 kts | 310° |
| 2026-05-07 20:43 | 49.96875 | 9.89787 | 32081 ft | 425 kts | 310° |
| 2026-05-07 20:43 | 50.00807 | 9.82903 | 32095 ft | 425 kts | 311° |
| 2026-05-07 20:44 | 50.04728 | 9.76003 | 32081 ft | 425 kts | 310° |
| 2026-05-07 20:44 | 50.08641 | 9.69091 | 32076 ft | 426 kts | 310° |
| 2026-05-07 20:45 | 50.12562 | 9.62157 | 32071 ft | 426 kts | 310° |
| 2026-05-07 20:45 | 50.16467 | 9.55219 | 32079 ft | 425 kts | 310° |
| 2026-05-07 20:46 | 50.20367 | 9.48275 | 32082 ft | 425 kts | 310° |
| 2026-05-07 20:46 | 50.24265 | 9.41322 | 32086 ft | 425 kts | 310° |
| 2026-05-07 20:47 | 50.28162 | 9.34359 | 32087 ft | 425 kts | 310° |
| 2026-05-07 20:47 | 50.32052 | 9.27387 | 32085 ft | 425 kts | 310° |
| 2026-05-07 20:48 | 50.35931 | 9.20389 | 32078 ft | 426 kts | 310° |
| 2026-05-07 20:48 | 50.39816 | 9.13376 | 32081 ft | 426 kts | 310° |
| 2026-05-07 20:49 | 50.43705 | 9.06358 | 32084 ft | 426 kts | 310° |
| 2026-05-07 20:49 | 50.47591 | 8.99326 | 32085 ft | 427 kts | 310° |
| 2026-05-07 20:50 | 50.51468 | 8.92271 | 32086 ft | 427 kts | 310° |
| 2026-05-07 20:50 | 50.55923 | 8.86114 | 32097 ft | 428 kts | 322° |
| 2026-05-07 20:51 | 50.60672 | 8.80438 | 32093 ft | 429 kts | 321° |
| 2026-05-07 20:51 | 50.65413 | 8.74737 | 32094 ft | 429 kts | 321° |
| 2026-05-07 20:52 | 50.70146 | 8.69008 | 32094 ft | 429 kts | 321° |
| 2026-05-07 20:52 | 50.74882 | 8.63284 | 32101 ft | 429 kts | 321° |
| 2026-05-07 20:52 | 50.77258 | 8.60419 | 31950 ft | 430 kts | 321° |
| 2026-05-07 20:53 | 50.79637 | 8.57548 | 31691 ft | 430 kts | 321° |
| 2026-05-07 20:53 | 50.82015 | 8.54671 | 31431 ft | 431 kts | 321° |
| 2026-05-07 20:53 | 50.84394 | 8.51778 | 31178 ft | 431 kts | 321° |
| 2026-05-07 20:53 | 50.86773 | 8.48874 | 30923 ft | 432 kts | 321° |
| 2026-05-07 20:54 | 50.89156 | 8.45962 | 30489 ft | 433 kts | 321° |
| 2026-05-07 20:54 | 50.91547 | 8.43045 | 29958 ft | 434 kts | 321° |
| 2026-05-07 20:54 | 50.93942 | 8.40115 | 29384 ft | 435 kts | 321° |
| 2026-05-07 20:54 | 50.96335 | 8.37181 | 28814 ft | 433 kts | 321° |
| 2026-05-07 20:55 | 50.98694 | 8.34219 | 28271 ft | 430 kts | 316° |
| 2026-05-07 20:55 | 51.00624 | 8.30651 | 27659 ft | 423 kts | 301° |
| 2026-05-07 20:55 | 51.01850 | 8.26459 | 26976 ft | 417 kts | 285° |
| 2026-05-07 20:55 | 51.02321 | 8.21947 | 26304 ft | 413 kts | 273° |
| 2026-05-07 20:56 | 51.02516 | 8.17415 | 25651 ft | 409 kts | 273° |
| 2026-05-07 20:56 | 51.02706 | 8.12924 | 25032 ft | 405 kts | 273° |
| 2026-05-07 20:56 | 51.02894 | 8.08481 | 24458 ft | 400 kts | 273° |
| 2026-05-07 20:56 | 51.03079 | 8.04101 | 23801 ft | 393 kts | 273° |
| 2026-05-07 20:57 | 51.03264 | 7.99764 | 23046 ft | 393 kts | 273° |
| 2026-05-07 20:57 | 51.03447 | 7.95450 | 22388 ft | 389 kts | 273° |
| 2026-05-07 20:57 | 51.03628 | 7.91184 | 21758 ft | 386 kts | 273° |
| 2026-05-07 20:57 | 51.03804 | 7.86923 | 21087 ft | 386 kts | 273° |
| 2026-05-07 20:58 | 51.03977 | 7.82652 | 20624 ft | 389 kts | 273° |
| 2026-05-07 20:58 | 51.04153 | 7.78376 | 20104 ft | 387 kts | 273° |
| 2026-05-07 20:58 | 51.04330 | 7.74118 | 19610 ft | 385 kts | 273° |
| 2026-05-07 20:58 | 51.04503 | 7.69890 | 19109 ft | 382 kts | 273° |
| 2026-05-07 20:59 | 51.04670 | 7.65687 | 18610 ft | 380 kts | 273° |
| 2026-05-07 20:59 | 51.04834 | 7.61515 | 18051 ft | 377 kts | 273° |
| 2026-05-07 20:59 | 51.04997 | 7.57365 | 17536 ft | 375 kts | 273° |
| 2026-05-07 20:59 | 51.05158 | 7.53249 | 17003 ft | 372 kts | 273° |
| 2026-05-07 21:00 | 51.05318 | 7.49159 | 16483 ft | 369 kts | 273° |
| 2026-05-07 21:00 | 51.05471 | 7.45101 | 15959 ft | 367 kts | 272° |
| 2026-05-07 21:00 | 51.05621 | 7.41067 | 15437 ft | 364 kts | 272° |
| 2026-05-07 21:00 | 51.05769 | 7.37068 | 14912 ft | 361 kts | 272° |
| 2026-05-07 21:01 | 51.05918 | 7.33096 | 14491 ft | 356 kts | 272° |
| 2026-05-07 21:01 | 51.06061 | 7.29269 | 14155 ft | 341 kts | 272° |
| 2026-05-07 21:01 | 51.06200 | 7.25531 | 13810 ft | 335 kts | 272° |
| 2026-05-07 21:01 | 51.06333 | 7.21864 | 13433 ft | 329 kts | 272° |
| 2026-05-07 21:02 | 51.06460 | 7.18253 | 13053 ft | 324 kts | 272° |
| 2026-05-07 21:02 | 51.06585 | 7.14722 | 12582 ft | 313 kts | 272° |
| 2026-05-07 21:02 | 51.06703 | 7.11332 | 12119 ft | 302 kts | 272° |
| 2026-05-07 21:02 | 51.06821 | 7.07984 | 11611 ft | 304 kts | 272° |
| 2026-05-07 21:03 | 51.06940 | 7.04611 | 11111 ft | 307 kts | 272° |
| 2026-05-07 21:03 | 51.07057 | 7.01214 | 10612 ft | 308 kts | 273° |
| 2026-05-07 21:03 | 51.07170 | 6.97813 | 10125 ft | 309 kts | 273° |
| 2026-05-07 21:03 | 51.07281 | 6.94406 | 9697 ft | 306 kts | 273° |
| 2026-05-07 21:04 | 51.07390 | 6.91066 | 9427 ft | 297 kts | 273° |
| 2026-05-07 21:04 | 51.07494 | 6.87895 | 9158 ft | 279 kts | 273° |
| 2026-05-07 21:04 | 51.07590 | 6.84883 | 8898 ft | 269 kts | 273° |
| 2026-05-07 21:04 | 51.07687 | 6.81950 | 8634 ft | 262 kts | 273° |
| 2026-05-07 21:05 | 51.07782 | 6.79078 | 8375 ft | 257 kts | 273° |
| 2026-05-07 21:05 | 51.07842 | 6.77217 | 8202 ft | 252 kts | 273° |
| 2026-05-07 21:05 | 51.07928 | 6.74520 | 7944 ft | 237 kts | 273° |
| 2026-05-07 21:05 | 51.08009 | 6.71972 | 7686 ft | 227 kts | 273° |
| 2026-05-07 21:06 | 51.08088 | 6.69458 | 7354 ft | 228 kts | 274° |
| 2026-05-07 21:06 | 51.08168 | 6.66946 | 7044 ft | 227 kts | 274° |
| 2026-05-07 21:06 | 51.08246 | 6.64453 | 6748 ft | 225 kts | 274° |
| 2026-05-07 21:06 | 51.08322 | 6.61967 | 6448 ft | 224 kts | 273° |
| 2026-05-07 21:07 | 51.08432 | 6.59498 | 6131 ft | 223 kts | 280° |
| 2026-05-07 21:07 | 51.08888 | 6.57158 | 5768 ft | 220 kts | 296° |
| 2026-05-07 21:07 | 51.09713 | 6.55149 | 5418 ft | 215 kts | 313° |
| 2026-05-07 21:07 | 51.10822 | 6.53589 | 5058 ft | 211 kts | 324° |
| 2026-05-07 21:08 | 51.11984 | 6.52192 | 4695 ft | 207 kts | 323° |
| 2026-05-07 21:08 | 51.13133 | 6.50795 | 4342 ft | 210 kts | 324° |
| 2026-05-07 21:08 | 51.14439 | 6.49879 | 4090 ft | 201 kts | 358° |
| 2026-05-07 21:08 | 51.15722 | 6.50265 | 4050 ft | 182 kts | 28° |
| 2026-05-07 21:09 | 51.16641 | 6.51570 | 3876 ft | 176 kts | 52° |
| 2026-05-07 21:09 | 51.17385 | 6.53123 | 3645 ft | 175 kts | 53° |
| 2026-05-07 21:09 | 51.18123 | 6.54663 | 3415 ft | 174 kts | 53° |
| 2026-05-07 21:09 | 51.18859 | 6.56197 | 3184 ft | 174 kts | 53° |
| 2026-05-07 21:10 | 51.19590 | 6.57718 | 2940 ft | 171 kts | 53° |
| 2026-05-07 21:10 | 51.20309 | 6.59215 | 2710 ft | 169 kts | 53° |
| 2026-05-07 21:10 | 51.21013 | 6.60682 | 2492 ft | 162 kts | 53° |
| 2026-05-07 21:10 | 51.21675 | 6.62061 | 2280 ft | 149 kts | 53° |
| 2026-05-07 21:11 | 51.22277 | 6.63314 | 2085 ft | 137 kts | 54° |
| 2026-05-07 21:11 | 51.22846 | 6.64502 | 1895 ft | 133 kts | 54° |
| 2026-05-07 21:11 | 51.23947 | 6.66809 | 1523 ft | 131 kts | 54° |
| 2026-05-07 21:12 | 51.24503 | 6.67965 | 1337 ft | 131 kts | 54° |
| 2026-05-07 21:12 | 51.25058 | 6.69120 | 1160 ft | 131 kts | 54° |
| 2026-05-07 21:12 | 51.25609 | 6.70268 | 962 ft | 129 kts | 53° |
| 2026-05-07 21:12 | 51.26152 | 6.71399 | 775 ft | 126 kts | 54° |
| 2026-05-07 21:13 | 51.26679 | 6.72508 | 601 ft | 125 kts | 53° |
| 2026-05-07 21:13 | 51.27213 | 6.73625 | 429 ft | 127 kts | 53° |
| 2026-05-07 21:13 | 51.27751 | 6.74747 | 261 ft | 127 kts | 53° |
| 2026-05-07 21:13 | 51.28278 | 6.75861 | 122 ft | 123 kts | 53° |
| 2026-05-07 21:14 | 51.28708 | 6.76767 | 117 ft | 78 kts | 52° |
| 2026-05-07 21:14 | 51.28957 | 6.77292 | 113 ft | 42 kts | 53° |
| 2026-05-07 21:14 | 51.29024 | 6.77498 | 117 ft | 16 kts | 92° |
| 2026-05-07 21:14 | 51.28955 | 6.77631 | 117 ft | 12 kts | 143° |
| 2026-05-07 21:15 | 51.28907 | 6.77648 | 118 ft | 6 kts | 205° |
| 2026-05-07 21:15 | 51.28879 | 6.77595 | 116 ft | 6 kts | 234° |
| 2026-05-07 21:15 | 51.28838 | 6.77505 | 117 ft | 12 kts | 233° |
| 2026-05-07 21:15 | 51.28752 | 6.77326 | 113 ft | 27 kts | 232° |
| 2026-05-07 21:16 | 51.28633 | 6.77081 | 114 ft | 29 kts | 233° |
| 2026-05-07 21:16 | 51.28506 | 6.76812 | 116 ft | 31 kts | 232° |
| 2026-05-07 21:16 | 51.28369 | 6.76525 | 117 ft | 27 kts | 232° |
| 2026-05-07 21:16 | 51.28300 | 6.76494 | 115 ft | 10 kts | 158° |
| 2026-05-07 21:17 | 51.28243 | 6.76456 | 115 ft | 9 kts | 220° |
| 2026-05-07 21:17 | 51.28198 | 6.76485 | 115 ft | 7 kts | 121° |
| 2026-05-07 21:17 | 51.28188 | 6.76548 | 114 ft | 3 kts | 100° |
| 2026-05-07 21:17 | 51.28188 | 6.76551 | 118 ft | 0 kts | 100° |